createdAt,value
2018-11-26T00:00:51.179Z,46.10
2018-11-26T00:01:51.197Z,44.50
2018-11-26T00:02:51.175Z,47.90
2018-11-26T00:03:51.179Z,46.00
2018-11-26T00:04:51.187Z,46.20
2018-11-26T00:05:51.198Z,45.70
2018-11-26T00:06:51.189Z,45.90
2018-11-26T00:07:51.198Z,45.30
2018-11-26T00:08:51.173Z,45.60
2018-11-26T00:09:51.173Z,44.30
2018-11-26T00:10:51.163Z,43.80
2018-11-26T00:11:51.169Z,44.90
2018-11-26T00:12:51.169Z,44.80
2018-11-26T00:13:51.158Z,44.40
2018-11-26T00:14:51.166Z,44.50
2018-11-26T00:15:51.171Z,45.20
2018-11-26T00:16:51.165Z,43.20
2018-11-26T00:17:51.174Z,43.30
2018-11-26T00:18:51.157Z,45.30
2018-11-26T00:19:51.166Z,43.80
2018-11-26T00:20:51.159Z,44.40
2018-11-26T00:21:51.147Z,44.70
2018-11-26T00:22:51.147Z,43.60
2018-11-26T00:23:51.144Z,43.40
2018-11-26T00:24:51.145Z,42.40
2018-11-26T00:25:51.136Z,43.60
2018-11-26T00:26:51.147Z,43.00
2018-11-26T00:27:51.137Z,44.00
2018-11-26T00:28:51.138Z,43.60
2018-11-26T00:29:51.141Z,42.20
2018-11-26T00:30:51.144Z,44.70
2018-11-26T00:31:51.140Z,44.10
2018-11-26T00:32:51.153Z,44.00
2018-11-26T00:33:51.132Z,43.70
2018-11-26T00:34:51.120Z,42.30
2018-11-26T00:35:51.126Z,41.80
2018-11-26T00:36:51.125Z,44.80
2018-11-26T00:37:51.127Z,45.20
2018-11-26T00:38:51.111Z,43.20
2018-11-26T00:39:51.120Z,43.20
2018-11-26T00:40:51.119Z,43.90
2018-11-26T00:41:51.110Z,43.20
2018-11-26T00:42:51.117Z,42.40
2018-11-26T00:43:51.098Z,42.00
2018-11-26T00:44:51.103Z,43.30
2018-11-26T00:45:51.120Z,42.40
2018-11-26T00:46:51.115Z,40.90
2018-11-26T00:47:51.110Z,39.60
2018-11-26T00:48:51.090Z,41.60
2018-11-26T00:49:51.091Z,41.70
2018-11-26T00:50:51.103Z,40.00
2018-11-26T00:51:53.848Z,41.70
2018-11-26T00:52:51.093Z,39.10
2018-11-26T00:53:51.083Z,39.70
2018-11-26T00:54:51.091Z,40.10
2018-11-26T00:55:51.088Z,40.20
2018-11-26T00:56:51.096Z,41.80
2018-11-26T00:57:51.078Z,39.80
2018-11-26T00:58:51.099Z,42.00
2018-11-26T00:59:51.078Z,42.70
2018-11-26T01:00:51.078Z,42.10
2018-11-26T01:01:51.063Z,40.00
2018-11-26T01:02:51.073Z,39.70
2018-11-26T01:03:51.094Z,39.90
2018-11-26T01:04:51.057Z,41.30
2018-11-26T01:05:51.061Z,39.60
2018-11-26T01:06:51.061Z,40.10
2018-11-26T01:07:51.061Z,40.80
2018-11-26T01:08:51.052Z,39.80
2018-11-26T01:09:51.049Z,40.00
2018-11-26T01:10:51.043Z,42.20
2018-11-26T01:11:51.064Z,40.00
2018-11-26T01:12:51.043Z,38.80
2018-11-26T01:13:51.047Z,40.40
2018-11-26T01:14:51.049Z,41.10
2018-11-26T01:15:51.033Z,38.80
2018-11-26T01:16:51.059Z,37.60
2018-11-26T01:17:51.037Z,41.20
2018-11-26T01:18:51.047Z,39.60
2018-11-26T01:19:51.041Z,41.50
2018-11-26T01:20:51.041Z,40.40
2018-11-26T01:21:51.065Z,34.60
2018-11-26T01:22:51.056Z,40.90
2018-11-26T01:23:51.031Z,40.00
2018-11-26T01:24:51.021Z,39.10
2018-11-26T01:25:51.022Z,38.90
2018-11-26T01:26:51.011Z,38.80
2018-11-26T01:27:51.034Z,39.60
2018-11-26T01:28:51.028Z,39.90
2018-11-26T01:29:51.024Z,36.40
2018-11-26T01:30:51.029Z,39.50
2018-11-26T01:31:51.026Z,39.10
2018-11-26T01:32:51.017Z,39.90
2018-11-26T01:33:51.006Z,41.20
2018-11-26T01:34:51.006Z,39.10
2018-11-26T01:35:51.003Z,38.80
2018-11-26T01:36:51.008Z,39.40
2018-11-26T01:37:51.000Z,39.00
2018-11-26T01:38:50.997Z,39.70
2018-11-26T01:39:50.999Z,39.70
2018-11-26T01:40:50.993Z,39.60
2018-11-26T01:41:51.005Z,36.90
2018-11-26T01:42:50.988Z,38.60
2018-11-26T01:43:50.989Z,39.20
2018-11-26T01:44:50.988Z,40.20
2018-11-26T01:45:50.983Z,38.70
2018-11-26T01:46:50.980Z,38.00
2018-11-26T01:47:50.988Z,39.20
2018-11-26T01:48:50.978Z,37.30
2018-11-26T01:49:50.964Z,39.10
2018-11-26T01:50:51.007Z,39.10
2018-11-26T01:51:50.975Z,38.50
2018-11-26T01:52:50.960Z,39.90
2018-11-26T01:53:50.978Z,39.20
2018-11-26T01:54:50.969Z,39.70
2018-11-26T01:55:50.975Z,38.20
2018-11-26T01:56:50.968Z,38.00
2018-11-26T01:57:50.959Z,39.90
2018-11-26T01:58:50.957Z,40.50
2018-11-26T01:59:50.967Z,39.40
2018-11-26T02:00:50.956Z,37.90
2018-11-26T02:01:50.951Z,38.00
2018-11-26T02:02:50.949Z,39.70
2018-11-26T02:03:50.940Z,38.40
2018-11-26T02:04:50.963Z,38.90
2018-11-26T02:05:50.942Z,37.00
2018-11-26T02:06:50.939Z,37.90
2018-11-26T02:07:50.976Z,39.10
2018-11-26T02:08:50.945Z,39.50
2018-11-26T02:09:50.938Z,37.80
2018-11-26T02:10:50.929Z,38.10
2018-11-26T02:11:50.924Z,37.40
2018-11-26T02:12:50.944Z,37.90
2018-11-26T02:13:50.989Z,38.60
2018-11-26T02:14:50.918Z,36.40
2018-11-26T02:15:50.920Z,33.30
2018-11-26T02:16:50.915Z,37.20
2018-11-26T02:17:50.919Z,37.70
2018-11-26T02:18:50.913Z,38.10
2018-11-26T02:19:50.928Z,37.20
2018-11-26T02:20:50.921Z,35.20
2018-11-26T02:21:50.944Z,34.70
2018-11-26T02:22:50.901Z,37.90
2018-11-26T02:23:50.906Z,38.80
2018-11-26T02:24:50.912Z,35.90
2018-11-26T02:25:50.924Z,39.50
2018-11-26T02:26:50.898Z,39.60
2018-11-26T02:27:50.895Z,41.00
2018-11-26T02:28:50.907Z,38.30
2018-11-26T02:29:50.900Z,40.00
2018-11-26T02:30:50.896Z,38.40
2018-11-26T02:31:50.890Z,40.50
2018-11-26T02:32:50.904Z,39.40
2018-11-26T02:33:50.910Z,38.70
2018-11-26T02:34:50.879Z,38.80
2018-11-26T02:35:50.878Z,38.70
2018-11-26T02:36:50.891Z,39.70
2018-11-26T02:37:50.890Z,39.30
2018-11-26T02:38:50.883Z,39.10
2018-11-26T02:39:50.877Z,40.00
2018-11-26T02:40:50.869Z,39.20
2018-11-26T02:41:50.895Z,38.20
2018-11-26T02:42:50.891Z,38.80
2018-11-26T02:43:50.878Z,38.60
2018-11-26T02:44:50.883Z,38.00
2018-11-26T02:45:50.882Z,39.10
2018-11-26T02:46:50.862Z,40.00
2018-11-26T02:47:50.865Z,38.60
2018-11-26T02:48:50.864Z,38.60
2018-11-26T02:49:50.861Z,38.40
2018-11-26T02:50:50.850Z,37.50
2018-11-26T02:51:50.862Z,39.30
2018-11-26T02:52:50.854Z,38.70
2018-11-26T02:53:50.864Z,39.40
2018-11-26T02:54:50.854Z,39.40
2018-11-26T02:55:50.848Z,40.70
2018-11-26T02:56:50.843Z,40.40
2018-11-26T02:57:50.848Z,39.30
2018-11-26T02:58:50.837Z,40.20
2018-11-26T02:59:50.839Z,39.30
2018-11-26T03:00:50.842Z,38.30
2018-11-26T03:01:50.831Z,38.70
2018-11-26T03:02:50.861Z,37.60
2018-11-26T03:03:50.834Z,38.90
2018-11-26T03:04:50.856Z,39.60
2018-11-26T03:05:50.839Z,37.90
2018-11-26T03:06:50.841Z,40.30
2018-11-26T03:07:50.834Z,38.20
2018-11-26T03:08:50.847Z,38.20
2018-11-26T03:09:50.821Z,39.80
2018-11-26T03:10:50.813Z,38.60
2018-11-26T03:11:50.817Z,38.60
2018-11-26T03:12:50.815Z,39.00
2018-11-26T03:13:50.819Z,39.70
2018-11-26T03:14:50.806Z,39.50
2018-11-26T03:15:50.808Z,39.10
2018-11-26T03:16:50.812Z,37.40
2018-11-26T03:17:50.799Z,40.00
2018-11-26T03:18:50.799Z,39.10
2018-11-26T03:19:50.803Z,38.40
2018-11-26T03:20:50.812Z,39.00
2018-11-26T03:21:50.825Z,40.70
2018-11-26T03:22:50.799Z,38.20
2018-11-26T03:23:50.789Z,40.50
2018-11-26T03:24:50.795Z,40.10
2018-11-26T03:25:50.794Z,39.10
2018-11-26T03:26:50.793Z,40.00
2018-11-26T03:27:50.803Z,40.20
2018-11-26T03:28:50.781Z,39.10
2018-11-26T03:29:50.789Z,40.30
2018-11-26T03:30:50.783Z,40.10
2018-11-26T03:31:50.785Z,41.00
2018-11-26T03:32:50.788Z,41.30
2018-11-26T03:33:50.800Z,39.70
2018-11-26T03:34:50.794Z,41.50
2018-11-26T03:35:50.777Z,42.60
2018-11-26T03:36:50.763Z,40.90
2018-11-26T03:37:50.771Z,39.70
2018-11-26T03:38:50.767Z,40.50
2018-11-26T03:39:50.771Z,41.00
2018-11-26T03:40:50.782Z,40.60
2018-11-26T03:41:50.777Z,40.50
2018-11-26T03:42:50.774Z,41.40
2018-11-26T03:43:50.769Z,37.60
2018-11-26T03:44:50.762Z,39.30
2018-11-26T03:45:50.780Z,38.90
2018-11-26T03:46:50.754Z,38.40
2018-11-26T03:47:50.750Z,38.10
2018-11-26T03:48:50.754Z,35.60
2018-11-26T03:49:50.747Z,37.00
2018-11-26T03:50:50.752Z,37.50
2018-11-26T03:51:50.737Z,38.20
2018-11-26T03:52:50.751Z,37.60
2018-11-26T03:53:50.730Z,37.00
2018-11-26T03:54:50.740Z,37.80
2018-11-26T03:55:50.735Z,38.40
2018-11-26T03:56:50.736Z,38.40
2018-11-26T03:57:50.768Z,38.10
2018-11-26T03:58:50.752Z,38.50
2018-11-26T03:59:50.731Z,38.80
2018-11-26T04:00:50.753Z,38.70
2018-11-26T04:01:50.732Z,37.90
2018-11-26T04:02:50.733Z,37.50
2018-11-26T04:03:50.715Z,39.10
2018-11-26T04:04:50.730Z,37.50
2018-11-26T04:05:50.722Z,37.50
2018-11-26T04:06:50.753Z,37.60
2018-11-26T04:07:50.725Z,37.60
2018-11-26T04:08:50.718Z,38.40
2018-11-26T04:09:50.717Z,38.40
2018-11-26T04:10:50.717Z,38.60
2018-11-26T04:11:50.707Z,38.60
2018-11-26T04:12:50.715Z,39.50
2018-11-26T04:13:50.707Z,39.30
2018-11-26T04:14:50.701Z,38.00
2018-11-26T04:15:50.702Z,37.80
2018-11-26T04:16:50.709Z,39.50
2018-11-26T04:17:50.689Z,38.60
2018-11-26T04:18:50.687Z,38.00
2018-11-26T04:19:50.716Z,38.20
2018-11-26T04:20:50.691Z,38.80
2018-11-26T04:21:50.698Z,38.70
2018-11-26T04:22:50.702Z,37.50
2018-11-26T04:23:50.690Z,39.40
2018-11-26T04:24:50.687Z,39.30
2018-11-26T04:25:50.688Z,37.80
2018-11-26T04:26:50.687Z,39.20
2018-11-26T04:27:50.690Z,36.80
2018-11-26T04:28:50.680Z,37.30
2018-11-26T04:29:50.677Z,37.20
2018-11-26T04:30:50.663Z,38.70
2018-11-26T04:31:50.677Z,38.00
2018-11-26T04:32:50.673Z,37.90
2018-11-26T04:33:50.676Z,37.30
2018-11-26T04:34:50.683Z,38.60
2018-11-26T04:35:50.675Z,39.00
2018-11-26T04:36:50.682Z,38.00
2018-11-26T04:37:50.666Z,39.60
2018-11-26T04:38:50.671Z,39.00
2018-11-26T04:39:50.667Z,37.80
2018-11-26T04:40:50.649Z,38.00
2018-11-26T04:41:50.671Z,38.60
2018-11-26T04:42:50.660Z,38.70
2018-11-26T04:43:50.664Z,37.30
2018-11-26T04:44:50.675Z,39.50
2018-11-26T04:45:50.668Z,39.60
2018-11-26T04:46:50.664Z,41.00
2018-11-26T04:47:50.653Z,40.20
2018-11-26T04:48:50.643Z,40.60
2018-11-26T04:49:50.641Z,38.80
2018-11-26T04:50:50.634Z,39.40
2018-11-26T04:51:50.640Z,39.80
2018-11-26T04:52:50.634Z,39.00
2018-11-26T04:53:50.642Z,39.50
2018-11-26T04:54:50.664Z,38.40
2018-11-26T04:55:50.635Z,39.20
2018-11-26T04:56:50.650Z,38.40
2018-11-26T04:57:50.635Z,39.50
2018-11-26T04:58:50.681Z,40.20
2018-11-26T04:59:50.681Z,39.20
2018-11-26T05:00:50.634Z,40.00
2018-11-26T05:01:50.631Z,39.60
2018-11-26T05:02:50.665Z,37.90
2018-11-26T05:03:50.626Z,38.30
2018-11-26T05:04:50.635Z,39.10
2018-11-26T05:05:50.619Z,39.30
2018-11-26T05:06:50.612Z,37.30
2018-11-26T05:07:50.620Z,39.00
2018-11-26T05:08:50.612Z,37.90
2018-11-26T05:09:50.627Z,40.20
2018-11-26T05:10:51.222Z,39.90
2018-11-26T05:11:50.626Z,39.40
2018-11-26T05:12:50.613Z,38.90
2018-11-26T05:13:50.605Z,37.90
2018-11-26T05:14:50.601Z,38.50
2018-11-26T05:15:50.603Z,36.50
2018-11-26T05:16:50.592Z,37.80
2018-11-26T05:17:50.619Z,37.00
2018-11-26T05:18:50.584Z,36.50
2018-11-26T05:19:50.620Z,36.70
2018-11-26T05:20:50.601Z,35.90
2018-11-26T05:21:50.580Z,35.10
2018-11-26T05:22:50.603Z,36.80
2018-11-26T05:23:50.582Z,38.10
2018-11-26T05:24:50.579Z,37.90
2018-11-26T05:25:50.591Z,37.80
2018-11-26T05:26:50.578Z,40.30
2018-11-26T05:27:50.569Z,37.90
2018-11-26T05:28:50.583Z,40.00
2018-11-26T05:29:50.575Z,37.90
2018-11-26T05:30:50.570Z,37.40
2018-11-26T05:31:50.571Z,40.60
2018-11-26T05:32:50.584Z,39.30
2018-11-26T05:33:50.578Z,39.00
2018-11-26T05:34:50.560Z,37.30
2018-11-26T05:35:50.564Z,38.90
2018-11-26T05:36:50.562Z,39.10
2018-11-26T05:37:50.582Z,38.80
2018-11-26T05:38:50.559Z,37.40
2018-11-26T05:39:50.550Z,38.00
2018-11-26T05:40:50.545Z,40.30
2018-11-26T05:41:50.545Z,38.50
2018-11-26T05:42:50.554Z,37.20
2018-11-26T05:43:50.541Z,37.30
2018-11-26T05:44:50.534Z,39.10
2018-11-26T05:45:50.556Z,38.20
2018-11-26T05:46:50.534Z,38.50
2018-11-26T05:47:50.572Z,39.90
2018-11-26T05:48:50.546Z,40.40
2018-11-26T05:49:50.528Z,36.40
2018-11-26T05:50:50.539Z,37.20
2018-11-26T05:51:50.531Z,37.40
2018-11-26T05:52:50.528Z,37.30
2018-11-26T05:53:50.520Z,37.20
2018-11-26T05:54:50.547Z,37.10
2018-11-26T05:55:50.538Z,37.50
2018-11-26T05:56:50.520Z,37.70
2018-11-26T05:57:50.527Z,37.80
2018-11-26T05:58:50.530Z,37.30
2018-11-26T05:59:50.514Z,37.20
2018-11-26T06:00:50.526Z,36.80
2018-11-26T06:01:50.544Z,39.10
2018-11-26T06:02:50.525Z,38.20
2018-11-26T06:03:50.519Z,38.90
2018-11-26T06:04:50.516Z,39.30
2018-11-26T06:05:50.509Z,37.70
2018-11-26T06:06:50.512Z,37.40
2018-11-26T06:07:50.508Z,36.40
2018-11-26T06:08:50.501Z,36.80
2018-11-26T06:09:50.517Z,37.40
2018-11-26T06:10:50.521Z,39.00
2018-11-26T06:11:50.534Z,39.00
2018-11-26T06:12:50.511Z,36.70
2018-11-26T06:13:50.505Z,38.40
2018-11-26T06:14:50.496Z,37.60
2018-11-26T06:15:50.483Z,37.40
2018-11-26T06:16:53.659Z,38.40
2018-11-26T06:17:50.485Z,39.80
2018-11-26T06:18:50.494Z,38.10
2018-11-26T06:19:50.496Z,38.20
2018-11-26T06:20:50.487Z,37.50
2018-11-26T06:21:50.472Z,38.90
2018-11-26T06:22:50.477Z,36.80
2018-11-26T06:23:50.471Z,38.40
2018-11-26T06:24:50.529Z,37.00
2018-11-26T06:25:50.472Z,38.20
2018-11-26T06:26:50.466Z,38.30
2018-11-26T06:27:50.469Z,37.90
2018-11-26T06:28:50.468Z,39.20
2018-11-26T06:29:50.484Z,38.40
2018-11-26T06:30:50.479Z,38.10
2018-11-26T06:31:50.459Z,39.10
2018-11-26T06:32:50.483Z,40.30
2018-11-26T06:33:50.459Z,38.60
2018-11-26T06:34:50.467Z,39.20
2018-11-26T06:35:50.482Z,40.70
2018-11-26T06:36:50.467Z,40.00
2018-11-26T06:37:50.476Z,39.40
2018-11-26T06:38:50.465Z,39.50
2018-11-26T06:39:50.453Z,40.30
2018-11-26T06:40:50.465Z,38.50
2018-11-26T06:41:50.440Z,39.60
2018-11-26T06:42:50.440Z,39.70
2018-11-26T06:43:50.452Z,39.90
2018-11-26T06:44:50.441Z,38.30
2018-11-26T06:45:50.441Z,38.20
2018-11-26T06:46:50.463Z,38.30
2018-11-26T06:47:50.443Z,36.90
2018-11-26T06:48:50.454Z,39.80
2018-11-26T06:49:50.451Z,37.40
2018-11-26T06:50:50.455Z,38.60
2018-11-26T06:51:50.443Z,40.50
2018-11-26T06:52:50.441Z,37.30
2018-11-26T06:53:50.436Z,39.00
2018-11-26T06:54:50.424Z,37.20
2018-11-26T06:55:50.428Z,39.00
2018-11-26T06:56:50.428Z,37.60
2018-11-26T06:57:50.429Z,37.80
2018-11-26T06:58:50.418Z,38.80
2018-11-26T06:59:50.420Z,39.30
2018-11-26T07:00:50.425Z,41.00
2018-11-26T07:01:50.418Z,40.10
2018-11-26T07:02:50.412Z,41.30
2018-11-26T07:03:50.414Z,41.20
2018-11-26T07:04:50.404Z,42.30
2018-11-26T07:05:50.765Z,42.40
2018-11-26T07:06:50.404Z,41.40
2018-11-26T07:07:50.402Z,42.70
2018-11-26T07:08:50.408Z,43.30
2018-11-26T07:09:50.446Z,43.00
2018-11-26T07:10:50.399Z,42.00
2018-11-26T07:11:50.425Z,42.30
2018-11-26T07:12:50.396Z,43.00
2018-11-26T07:13:50.391Z,42.00
2018-11-26T07:14:50.396Z,43.50
2018-11-26T07:15:50.432Z,43.60
2018-11-26T07:16:50.404Z,44.90
2018-11-26T07:17:50.386Z,44.40
2018-11-26T07:18:50.415Z,45.20
2018-11-26T07:19:50.383Z,47.20
2018-11-26T07:20:50.391Z,45.50
2018-11-26T07:21:50.387Z,45.70
2018-11-26T07:22:50.393Z,45.20
2018-11-26T07:23:50.417Z,46.30
2018-11-26T07:24:50.371Z,46.50
2018-11-26T07:25:50.445Z,45.70
2018-11-26T07:26:50.364Z,46.40
2018-11-26T07:27:50.380Z,46.60
2018-11-26T07:28:50.364Z,45.30
2018-11-26T07:29:50.393Z,47.00
2018-11-26T07:30:50.360Z,46.00
2018-11-26T07:31:50.392Z,44.50
2018-11-26T07:32:50.364Z,43.70
2018-11-26T07:33:50.368Z,44.90
2018-11-26T07:34:50.371Z,45.00
2018-11-26T07:35:50.358Z,45.40
2018-11-26T07:36:50.366Z,46.80
2018-11-26T07:37:50.368Z,45.10
2018-11-26T07:38:50.350Z,45.10
2018-11-26T07:39:50.353Z,44.90
2018-11-26T07:40:50.361Z,45.80
2018-11-26T07:41:50.357Z,46.30
2018-11-26T07:42:50.351Z,44.70
2018-11-26T07:43:50.374Z,45.20
2018-11-26T07:44:50.356Z,45.40
2018-11-26T07:45:50.345Z,45.20
2018-11-26T07:46:50.333Z,46.00
2018-11-26T07:47:50.345Z,46.70
2018-11-26T07:48:50.401Z,44.60
2018-11-26T07:49:50.335Z,45.90
2018-11-26T07:50:50.342Z,46.30
2018-11-26T07:51:50.341Z,45.50
2018-11-26T07:52:50.345Z,44.60
2018-11-26T07:53:50.334Z,45.80
2018-11-26T07:54:50.322Z,45.10
2018-11-26T07:55:50.343Z,44.30
2018-11-26T07:56:50.320Z,45.50
2018-11-26T07:57:50.326Z,45.90
2018-11-26T07:58:50.374Z,45.60
2018-11-26T07:59:50.323Z,46.30
2018-11-26T08:00:50.315Z,46.60
2018-11-26T08:01:50.333Z,46.50
2018-11-26T08:02:50.309Z,48.20
2018-11-26T08:03:50.310Z,47.90
2018-11-26T08:04:50.329Z,46.80
2018-11-26T08:05:50.299Z,47.80
2018-11-26T08:06:50.340Z,50.60
2018-11-26T08:07:50.971Z,48.90
2018-11-26T08:08:50.336Z,47.90
2018-11-26T08:09:50.314Z,47.20
2018-11-26T08:10:50.317Z,50.10
2018-11-26T08:11:50.309Z,51.60
2018-11-26T08:12:50.296Z,52.90
2018-11-26T08:13:50.290Z,52.00
2018-11-26T08:14:50.329Z,51.80
2018-11-26T08:15:50.306Z,51.00
2018-11-26T08:16:50.297Z,51.90
2018-11-26T08:17:50.320Z,51.30
2018-11-26T08:18:50.315Z,54.00
2018-11-26T08:19:50.326Z,51.90
2018-11-26T08:20:50.288Z,50.60
2018-11-26T08:21:50.286Z,52.60
2018-11-26T08:22:50.277Z,52.00
2018-11-26T08:23:50.283Z,51.60
2018-11-26T08:24:50.279Z,51.80
2018-11-26T08:25:50.280Z,52.40
2018-11-26T08:26:50.299Z,52.00
2018-11-26T08:27:50.308Z,51.10
2018-11-26T08:28:50.273Z,53.20
2018-11-26T08:29:50.288Z,53.60
2018-11-26T08:30:50.269Z,50.60
2018-11-26T08:31:50.282Z,54.40
2018-11-26T08:32:50.262Z,53.60
2018-11-26T08:33:50.278Z,54.50
2018-11-26T08:34:50.257Z,53.60
2018-11-26T08:35:50.281Z,53.10
2018-11-26T08:36:50.273Z,52.20
2018-11-26T08:37:50.261Z,53.60
2018-11-26T08:38:50.257Z,54.40
2018-11-26T08:39:50.283Z,53.50
2018-11-26T08:40:50.275Z,53.60
2018-11-26T08:41:50.260Z,52.10
2018-11-26T08:42:50.244Z,54.00
2018-11-26T08:43:50.255Z,54.30
2018-11-26T08:44:50.246Z,54.10
2018-11-26T08:45:50.240Z,53.60
2018-11-26T08:46:50.250Z,54.80
2018-11-26T08:47:50.244Z,53.60
2018-11-26T08:48:50.268Z,55.50
2018-11-26T08:49:50.243Z,55.60
2018-11-26T08:50:50.257Z,54.50
2018-11-26T08:51:50.236Z,54.40
2018-11-26T08:52:50.231Z,54.00
2018-11-26T08:53:50.236Z,54.70
2018-11-26T08:54:50.243Z,53.10
2018-11-26T08:55:50.227Z,53.30
2018-11-26T08:56:50.223Z,50.90
2018-11-26T08:57:50.228Z,51.60
2018-11-26T08:58:50.289Z,52.30
2018-11-26T08:59:50.233Z,50.40
2018-11-26T09:00:50.220Z,51.20
2018-11-26T09:01:50.232Z,49.90
2018-11-26T09:02:50.233Z,51.70
2018-11-26T09:03:50.234Z,50.60
2018-11-26T09:04:50.217Z,49.90
2018-11-26T09:05:50.258Z,51.20
2018-11-26T09:06:50.222Z,51.90
2018-11-26T09:07:50.214Z,52.20
2018-11-26T09:08:50.223Z,52.30
2018-11-26T09:09:50.224Z,52.30
2018-11-26T09:10:50.208Z,51.50
2018-11-26T09:11:50.207Z,52.60
2018-11-26T09:12:50.222Z,52.10
2018-11-26T09:13:51.945Z,53.00
2018-11-26T09:14:50.212Z,50.70
2018-11-26T09:15:50.202Z,49.80
2018-11-26T09:16:50.199Z,53.90
2018-11-26T09:17:50.207Z,51.40
2018-11-26T09:18:50.212Z,53.90
2018-11-26T09:19:50.210Z,55.10
2018-11-26T09:20:50.222Z,51.30
2018-11-26T09:21:50.180Z,51.40
2018-11-26T09:22:50.179Z,49.20
2018-11-26T09:23:50.189Z,51.20
2018-11-26T09:24:50.176Z,53.50
2018-11-26T09:25:50.204Z,53.30
2018-11-26T09:26:50.190Z,54.80
2018-11-26T09:27:50.201Z,53.40
2018-11-26T09:28:50.180Z,56.00
2018-11-26T09:29:50.188Z,57.10
2018-11-26T09:30:50.177Z,57.00
2018-11-26T09:31:50.179Z,57.20
2018-11-26T09:32:50.266Z,56.30
2018-11-26T09:33:50.173Z,57.70
2018-11-26T09:34:50.166Z,57.10
2018-11-26T09:35:50.197Z,56.20
2018-11-26T09:36:50.168Z,57.00
2018-11-26T09:37:50.169Z,57.80
2018-11-26T09:38:50.191Z,56.30
2018-11-26T09:39:50.175Z,57.80
2018-11-26T09:40:50.172Z,57.70
2018-11-26T09:41:50.180Z,58.30
2018-11-26T09:42:50.152Z,59.50
2018-11-26T09:43:50.184Z,59.80
2018-11-26T09:44:50.158Z,56.90
2018-11-26T09:45:50.156Z,57.60
2018-11-26T09:46:50.172Z,57.40
2018-11-26T09:47:50.178Z,59.60
2018-11-26T09:48:50.173Z,58.90
2018-11-26T09:49:50.149Z,58.00
2018-11-26T09:50:50.151Z,58.10
2018-11-26T09:51:50.151Z,57.90
2018-11-26T09:52:50.148Z,59.60
2018-11-26T09:53:50.144Z,61.00
2018-11-26T09:54:50.138Z,57.90
2018-11-26T09:55:50.142Z,59.40
2018-11-26T09:56:50.133Z,60.00
2018-11-26T09:57:50.148Z,58.70
2018-11-26T09:58:50.159Z,60.60
2018-11-26T09:59:50.162Z,58.10
2018-11-26T10:00:50.151Z,62.10
2018-11-26T10:01:50.152Z,58.20
2018-11-26T10:02:50.128Z,57.50
2018-11-26T10:03:50.150Z,57.70
2018-11-26T10:04:50.134Z,56.20
2018-11-26T10:05:50.141Z,58.90
2018-11-26T10:06:50.181Z,56.40
2018-11-26T10:07:50.146Z,56.80
2018-11-26T10:08:50.138Z,55.80
2018-11-26T10:09:50.139Z,55.60
2018-11-26T10:10:50.143Z,55.20
2018-11-26T10:11:50.159Z,55.30
2018-11-26T10:12:50.136Z,55.50
2018-11-26T10:13:50.137Z,54.00
2018-11-26T10:14:50.150Z,55.70
2018-11-26T10:15:50.121Z,54.30
2018-11-26T10:16:50.125Z,52.90
2018-11-26T10:17:50.153Z,55.00
2018-11-26T10:18:50.122Z,53.80
2018-11-26T10:19:50.137Z,54.20
2018-11-26T10:20:50.122Z,55.80
2018-11-26T10:21:50.117Z,55.20
2018-11-26T10:22:50.168Z,53.50
2018-11-26T10:23:50.115Z,51.00
2018-11-26T10:24:50.286Z,53.20
2018-11-26T10:25:50.107Z,50.50
2018-11-26T10:26:50.112Z,51.70
2018-11-26T10:27:50.127Z,50.20
2018-11-26T10:28:50.125Z,48.60
2018-11-26T10:29:50.114Z,48.90
2018-11-26T10:30:50.104Z,49.80
2018-11-26T10:31:50.985Z,48.90
2018-11-26T10:32:50.109Z,50.40
2018-11-26T10:33:50.111Z,50.50
2018-11-26T10:34:50.087Z,49.80
2018-11-26T10:35:50.200Z,46.50
2018-11-26T10:36:50.099Z,47.60
2018-11-26T10:37:50.100Z,47.40
2018-11-26T10:38:50.118Z,48.00
2018-11-26T10:39:50.104Z,47.60
2018-11-26T10:40:50.096Z,47.40
2018-11-26T10:41:50.125Z,49.60
2018-11-26T10:42:50.095Z,49.80
2018-11-26T10:43:50.141Z,49.70
2018-11-26T10:44:50.098Z,50.10
2018-11-26T10:45:50.085Z,48.20
2018-11-26T10:46:50.077Z,50.40
2018-11-26T10:47:50.097Z,49.70
2018-11-26T10:48:50.101Z,48.70
2018-11-26T10:49:50.093Z,49.10
2018-11-26T10:50:50.126Z,50.20
2018-11-26T10:51:50.078Z,49.20
2018-11-26T10:52:50.080Z,49.30
2018-11-26T10:53:50.099Z,49.20
2018-11-26T10:54:50.077Z,48.50
2018-11-26T10:55:50.081Z,50.50
2018-11-26T10:56:50.103Z,50.70
2018-11-26T10:57:50.058Z,49.60
2018-11-26T10:58:50.077Z,50.90
2018-11-26T10:59:50.064Z,49.90
2018-11-26T11:00:50.065Z,50.00
2018-11-26T11:01:50.058Z,52.20
2018-11-26T11:02:50.078Z,51.10
2018-11-26T11:03:50.067Z,49.80
2018-11-26T11:04:50.072Z,51.60
2018-11-26T11:05:50.064Z,51.10
2018-11-26T11:06:55.696Z,49.70
2018-11-26T11:07:50.047Z,51.50
2018-11-26T11:08:50.046Z,50.30
2018-11-26T11:09:50.067Z,50.00
2018-11-26T11:10:50.050Z,48.60
2018-11-26T11:11:50.050Z,50.00
2018-11-26T11:12:50.042Z,49.60
2018-11-26T11:13:50.041Z,49.70
2018-11-26T11:14:50.039Z,48.20
2018-11-26T11:15:50.055Z,49.90
2018-11-26T11:16:50.052Z,48.50
2018-11-26T11:17:50.048Z,47.40
2018-11-26T11:18:50.049Z,48.90
2018-11-26T11:19:50.059Z,47.80
2018-11-26T11:20:50.053Z,49.20
2018-11-26T11:21:50.091Z,47.90
2018-11-26T11:22:50.039Z,50.00
2018-11-26T11:23:50.036Z,48.80
2018-11-26T11:24:50.032Z,49.60
2018-11-26T11:25:50.041Z,48.30
2018-11-26T11:26:50.039Z,47.10
2018-11-26T11:27:50.043Z,48.70
2018-11-26T11:28:50.040Z,48.90
2018-11-26T11:29:50.026Z,48.90
2018-11-26T11:30:50.037Z,48.70
2018-11-26T11:31:50.047Z,49.30
2018-11-26T11:32:50.046Z,49.30
2018-11-26T11:33:50.022Z,47.40
2018-11-26T11:34:50.013Z,47.10
2018-11-26T11:35:50.074Z,45.80
2018-11-26T11:36:50.026Z,46.40
2018-11-26T11:37:50.017Z,45.80
2018-11-26T11:38:50.018Z,45.00
2018-11-26T11:39:50.002Z,45.60
2018-11-26T11:40:50.021Z,46.90
2018-11-26T11:41:50.017Z,44.10
2018-11-26T11:42:50.007Z,46.00
2018-11-26T11:43:50.007Z,45.90
2018-11-26T11:44:50.004Z,44.40
2018-11-26T11:45:49.998Z,45.80
2018-11-26T11:46:49.999Z,44.20
2018-11-26T11:47:50.034Z,44.40
2018-11-26T11:48:49.989Z,44.70
2018-11-26T11:49:49.994Z,44.90
2018-11-26T11:50:50.006Z,44.60
2018-11-26T11:51:49.985Z,43.60
2018-11-26T11:52:49.992Z,44.40
2018-11-26T11:53:50.011Z,43.50
2018-11-26T11:54:49.999Z,43.60
2018-11-26T11:55:50.008Z,43.40
2018-11-26T11:56:49.992Z,42.40
2018-11-26T11:57:50.021Z,43.70
2018-11-26T11:58:49.969Z,44.80
2018-11-26T11:59:50.040Z,44.40
2018-11-26T12:00:49.974Z,43.40
2018-11-26T12:01:49.978Z,41.10
2018-11-26T12:02:49.985Z,43.90
2018-11-26T12:03:49.968Z,43.60
2018-11-26T12:04:49.983Z,41.80
2018-11-26T12:05:49.993Z,42.20
2018-11-26T12:06:50.019Z,41.80
2018-11-26T12:07:49.989Z,43.50
2018-11-26T12:08:49.967Z,41.10
2018-11-26T12:09:49.983Z,42.10
2018-11-26T12:10:49.975Z,40.20
2018-11-26T12:11:49.999Z,41.30
2018-11-26T12:12:50.004Z,42.10
2018-11-26T12:13:50.028Z,42.00
2018-11-26T12:14:50.013Z,42.90
2018-11-26T12:15:49.959Z,42.30
2018-11-26T12:16:49.968Z,42.10
2018-11-26T12:17:49.963Z,40.60
2018-11-26T12:18:49.993Z,41.90
2018-11-26T12:19:49.963Z,40.40
2018-11-26T12:20:49.979Z,42.10
2018-11-26T12:21:50.181Z,43.10
2018-11-26T12:22:49.943Z,41.60
2018-11-26T12:23:49.987Z,42.70
2018-11-26T12:24:49.946Z,43.50
2018-11-26T12:25:50.600Z,44.40
2018-11-26T12:26:49.950Z,43.40
2018-11-26T12:27:49.946Z,42.30
2018-11-26T12:28:49.943Z,42.00
2018-11-26T12:29:49.955Z,41.10
2018-11-26T12:30:49.965Z,42.60
2018-11-26T12:31:49.951Z,41.80
2018-11-26T12:32:49.960Z,41.60
2018-11-26T12:33:49.952Z,41.90
2018-11-26T12:34:49.961Z,42.50
2018-11-26T12:35:49.949Z,43.30
2018-11-26T12:36:52.496Z,41.80
2018-11-26T12:37:49.923Z,41.70
2018-11-26T12:38:49.929Z,42.20
2018-11-26T12:39:49.943Z,42.60
2018-11-26T12:40:49.950Z,41.00
2018-11-26T12:41:49.941Z,41.60
2018-11-26T12:42:49.915Z,41.90
2018-11-26T12:43:50.713Z,41.90
2018-11-26T12:44:49.947Z,40.70
2018-11-26T12:45:49.904Z,42.80
2018-11-26T12:46:49.932Z,40.90
2018-11-26T12:47:49.954Z,39.90
2018-11-26T12:48:49.918Z,41.10
2018-11-26T12:49:49.927Z,40.10
2018-11-26T12:50:49.941Z,41.00
2018-11-26T12:51:49.914Z,40.50
2018-11-26T12:52:49.920Z,41.80